createdAt,value
2023-01-12T00:01:42.853Z,99805.63
2023-01-12T00:04:14.181Z,99809.09
2023-01-12T00:06:43.609Z,99807.38
2023-01-12T00:09:13.014Z,99810.84
2023-01-12T00:11:42.246Z,99822.16
2023-01-12T00:14:11.561Z,99823.03
2023-01-12T00:16:42.005Z,99819.50
2023-01-12T00:19:13.044Z,99834.31
2023-01-12T00:21:56.636Z,99831.72
2023-01-12T00:24:27.578Z,99836.09
2023-01-12T00:26:57.752Z,99834.34
2023-01-12T00:29:27.888Z,99837.84
2023-01-12T00:31:59.388Z,99838.72
2023-01-12T00:34:29.799Z,99835.22
2023-01-12T00:37:01.283Z,99847.41
2023-01-12T00:39:30.303Z,99851.75
2023-01-12T00:42:16.961Z,99850.91
2023-01-12T00:45:03.192Z,99848.25
2023-01-12T00:47:34.413Z,99849.16
2023-01-12T00:50:03.372Z,99835.22
2023-01-12T00:52:32.244Z,99840.44
2023-01-12T00:55:01.377Z,99835.22
2023-01-12T00:57:30.222Z,99833.47
2023-01-12T01:00:00.345Z,99842.19
2023-01-12T01:02:29.944Z,99840.44
2023-01-12T01:05:00.343Z,99835.22
2023-01-12T01:07:29.039Z,99837.81
2023-01-12T01:09:58.050Z,99846.53
2023-01-12T01:12:27.128Z,99859.59
2023-01-12T01:14:56.636Z,99858.75
2023-01-12T01:17:25.443Z,99860.47
2023-01-12T01:19:54.355Z,99864.81
2023-01-12T01:22:24.374Z,99864.84
2023-01-12T01:24:53.206Z,99867.44
2023-01-12T01:27:21.937Z,99869.16
2023-01-12T01:29:51.105Z,99876.97
2023-01-12T01:32:19.681Z,99872.63
2023-01-12T01:34:49.030Z,99876.13
2023-01-12T01:37:18.486Z,99877.00
2023-01-12T01:39:48.819Z,99864.81
2023-01-12T01:42:28.384Z,99869.16
2023-01-12T01:45:00.878Z,99875.28
2023-01-12T01:47:36.274Z,99869.16
2023-01-12T01:50:13.813Z,99869.19
2023-01-12T01:52:46.412Z,99866.56
2023-01-12T01:55:21.920Z,99868.28
2023-01-12T01:57:53.641Z,99856.97
2023-01-12T02:00:23.663Z,99865.72
2023-01-12T02:02:53.477Z,99862.19
2023-01-12T02:05:26.152Z,99862.22
2023-01-12T02:07:56.263Z,99861.34
2023-01-12T02:10:26.945Z,99865.69
2023-01-12T02:13:27.785Z,99851.78
2023-01-12T02:16:20.507Z,99856.09
2023-01-12T02:18:58.068Z,99859.59
2023-01-12T02:21:57.092Z,99852.63
2023-01-12T02:24:58.178Z,99848.22
2023-01-12T02:27:57.953Z,99851.72
2023-01-12T02:31:02.943Z,99854.34
2023-01-12T02:33:44.952Z,99858.75
2023-01-12T02:36:19.337Z,99857.84
2023-01-12T02:38:52.961Z,99853.53
2023-01-12T02:41:41.816Z,99851.78
2023-01-12T02:44:31.739Z,99853.50
2023-01-12T02:47:04.289Z,99843.06
2023-01-12T02:49:41.220Z,99853.50
2023-01-12T02:52:15.739Z,99858.72
2023-01-12T02:54:50.802Z,99846.53
2023-01-12T02:57:24.462Z,99843.03
2023-01-12T02:59:56.050Z,99833.47
2023-01-12T03:02:27.818Z,99837.81
2023-01-12T03:04:58.478Z,99836.06
2023-01-12T03:07:43.847Z,99839.53
2023-01-12T03:10:41.471Z,99843.88
2023-01-12T03:13:13.444Z,99838.69
2023-01-12T03:15:47.311Z,99835.19
2023-01-12T03:18:19.873Z,99828.25
2023-01-12T03:20:55.223Z,99825.59
2023-01-12T03:23:30.948Z,99822.13
2023-01-12T03:26:02.385Z,99829.13
2023-01-12T03:28:35.814Z,99822.16
2023-01-12T03:31:11.445Z,99816.06
2023-01-12T03:33:43.094Z,99817.78
2023-01-12T03:36:35.661Z,99816.94
2023-01-12T03:39:15.038Z,99815.16
2023-01-12T03:41:56.030Z,99814.31
2023-01-12T03:44:34.020Z,99826.53
2023-01-12T03:47:08.629Z,99826.50
2023-01-12T03:49:42.783Z,99824.75
2023-01-12T03:52:14.397Z,99823.88
2023-01-12T03:54:45.262Z,99822.16
2023-01-12T03:57:15.353Z,99825.66
2023-01-12T03:59:44.329Z,99823.03
2023-01-12T04:02:14.554Z,99817.81
2023-01-12T04:04:44.253Z,99814.31
2023-01-12T04:07:15.221Z,99817.81
2023-01-12T04:09:43.874Z,99808.22
2023-01-12T04:12:12.685Z,99814.28
2023-01-12T04:14:46.871Z,99806.47
2023-01-12T04:17:17.790Z,99804.72
2023-01-12T04:19:46.413Z,99804.72
2023-01-12T04:22:35.003Z,99802.13
2023-01-12T04:25:04.033Z,99806.50
2023-01-12T04:27:33.132Z,99800.38
2023-01-12T04:30:01.860Z,99806.47
2023-01-12T04:32:31.015Z,99812.56
2023-01-12T04:34:59.893Z,99816.91
2023-01-12T04:37:30.095Z,99823.00
2023-01-12T04:39:58.820Z,99825.63
2023-01-12T04:42:45.630Z,99826.50
2023-01-12T04:45:14.257Z,99825.63
2023-01-12T04:47:43.899Z,99826.47
2023-01-12T04:50:12.556Z,99833.47
2023-01-12T04:52:43.249Z,99840.44
2023-01-12T04:55:12.510Z,99847.38
2023-01-12T04:57:41.679Z,99847.41
2023-01-12T05:00:11.788Z,99856.97
2023-01-12T05:02:40.791Z,99848.25
2023-01-12T05:05:09.833Z,99859.56
2023-01-12T05:07:59.075Z,99861.31
2023-01-12T05:10:28.139Z,99861.31
2023-01-12T05:12:57.226Z,99861.31
2023-01-12T05:15:26.187Z,99860.44
2023-01-12T05:17:55.589Z,99859.59
2023-01-12T05:20:24.497Z,99863.06
2023-01-12T05:22:53.491Z,99860.44
2023-01-12T05:25:22.665Z,99865.63
2023-01-12T05:27:57.884Z,99868.44
2023-01-12T05:30:29.383Z,99881.94
2023-01-12T05:33:00.990Z,99877.75
2023-01-12T05:35:29.910Z,99886.22
2023-01-12T05:37:59.159Z,99885.22
2023-01-12T05:40:28.059Z,99868.69
2023-01-12T05:43:15.704Z,99871.81
2023-01-12T05:45:44.544Z,99882.53
2023-01-12T05:48:13.504Z,99878.38
2023-01-12T05:50:42.094Z,99870.69
2023-01-12T05:53:11.403Z,99869.91
2023-01-12T05:55:40.257Z,99878.66
2023-01-12T05:58:10.817Z,99865.63
2023-01-12T06:00:39.626Z,99871.72
2023-01-12T06:03:08.902Z,99870.91
2023-01-12T06:05:37.466Z,99864.81
2023-01-12T06:08:07.036Z,99865.69
2023-01-12T06:10:37.089Z,99860.47
2023-01-12T06:13:23.903Z,99866.56
2023-01-12T06:15:54.151Z,99871.78
2023-01-12T06:18:23.484Z,99864.84
2023-01-12T06:20:52.397Z,99857.84
2023-01-12T06:23:21.335Z,99871.69
2023-01-12T06:26:09.101Z,99885.03
2023-01-12T06:28:40.965Z,99887.47
2023-01-12T06:31:12.969Z,99885.69
2023-01-12T06:33:43.272Z,99889.31
2023-01-12T06:36:12.993Z,99884.22
2023-01-12T06:38:43.338Z,99887.41
2023-01-12T06:41:34.534Z,99895.63
2023-01-12T06:44:03.499Z,99901.09
2023-01-12T06:46:33.689Z,99896.75
2023-01-12T06:49:02.622Z,99900.34
2023-01-12T06:51:31.346Z,99903.91
2023-01-12T06:54:01.483Z,99905.69
2023-01-12T06:56:30.182Z,99907.44
2023-01-12T06:58:59.167Z,99900.50
2023-01-12T07:01:27.853Z,99912.69
2023-01-12T07:03:58.348Z,99916.22
2023-01-12T07:06:27.585Z,99918.81
2023-01-12T07:08:56.546Z,99918.81
2023-01-12T07:11:25.768Z,99918.81
2023-01-12T07:13:56.359Z,99923.16
2023-01-12T07:16:25.345Z,99923.16
2023-01-12T07:18:54.333Z,99926.63
2023-01-12T07:21:24.707Z,99940.84
2023-01-12T07:23:53.905Z,99950.47
2023-01-12T07:26:22.539Z,99950.66
2023-01-12T07:28:51.677Z,99954.94
2023-01-12T07:31:20.480Z,99952.28
2023-01-12T07:33:52.127Z,99959.91
2023-01-12T07:36:21.314Z,99966.69
2023-01-12T07:38:51.886Z,99966.69
2023-01-12T07:41:38.055Z,99971.75
2023-01-12T07:44:15.205Z,99969.13
2023-01-12T07:46:44.439Z,99970.88
2023-01-12T07:49:14.146Z,99979.41
2023-01-12T07:51:42.780Z,99975.31
2023-01-12T07:54:13.780Z,99982.75
2023-01-12T07:56:44.312Z,99987.03
2023-01-12T07:59:13.345Z,99980.63
2023-01-12T08:01:42.380Z,99979.63
2023-01-12T08:04:11.360Z,99987.78
2023-01-12T08:06:39.993Z,99988.75
2023-01-12T08:09:09.000Z,99995.22
2023-01-12T08:11:40.135Z,99996.72
2023-01-12T08:14:09.641Z,100008.47
2023-01-12T08:16:42.178Z,100012.19
2023-01-12T08:19:17.602Z,100006.81
2023-01-12T08:21:50.948Z,100008.47
2023-01-12T08:24:25.833Z,100007.41
2023-01-12T08:26:59.953Z,100015.00
2023-01-12T08:29:33.960Z,99996.81
2023-01-12T08:32:05.189Z,100004.22
2023-01-12T08:34:35.293Z,100009.03
2023-01-12T08:37:09.626Z,100006.41
2023-01-12T08:39:39.492Z,100009.41
2023-01-12T08:42:09.677Z,100001.84
2023-01-12T08:44:38.962Z,100006.16
2023-01-12T08:47:17.234Z,100005.94
2023-01-12T08:49:46.981Z,100001.78
2023-01-12T08:52:16.916Z,100007.22
2023-01-12T08:54:46.593Z,99996.94
2023-01-12T08:57:19.351Z,99993.56
2023-01-12T08:59:48.387Z,99989.28
2023-01-12T09:02:17.560Z,99982.38
2023-01-12T09:04:46.762Z,99980.63
2023-01-12T09:07:17.185Z,99978.97
2023-01-12T09:09:46.066Z,99981.59
2023-01-12T09:12:16.728Z,99982.47
2023-01-12T09:14:45.689Z,99981.56
2023-01-12T09:17:14.402Z,99970.22
2023-01-12T09:19:44.647Z,99970.19
2023-01-12T09:22:13.420Z,99962.31
2023-01-12T09:24:42.516Z,99958.78
2023-01-12T09:27:12.220Z,99957.91
2023-01-12T09:29:42.525Z,99960.47
2023-01-12T09:32:11.113Z,99958.72
2023-01-12T09:34:40.354Z,99963.06
2023-01-12T09:37:08.944Z,99958.63
2023-01-12T09:39:38.000Z,99948.16
2023-01-12T09:42:24.854Z,99944.69
2023-01-12T09:45:12.505Z,99942.91
2023-01-12T09:48:14.340Z,99935.00
2023-01-12T09:50:53.006Z,99937.53
2023-01-12T09:53:26.641Z,99932.34
2023-01-12T09:56:04.743Z,99930.53
2023-01-12T09:58:55.385Z,99925.25
2023-01-12T10:01:30.428Z,99927.03
2023-01-12T10:04:02.697Z,99925.31
2023-01-12T10:06:33.072Z,99923.50
2023-01-12T10:09:03.225Z,99932.22
2023-01-12T10:11:41.440Z,99922.53
2023-01-12T10:14:32.253Z,99926.00
2023-01-12T10:17:18.087Z,99924.19
2023-01-12T10:19:55.014Z,99923.31
2023-01-12T10:22:38.878Z,99919.84
2023-01-12T10:25:17.329Z,99930.19
2023-01-12T10:27:48.268Z,99927.63
2023-01-12T10:30:19.724Z,99927.72
2023-01-12T10:32:49.991Z,99932.03
2023-01-12T10:35:20.932Z,99933.88
2023-01-12T10:37:52.916Z,99947.88
2023-01-12T10:40:28.936Z,99940.81
2023-01-12T10:43:24.034Z,99936.28
2023-01-12T10:46:10.333Z,99931.97
2023-01-12T10:48:43.293Z,99926.28
2023-01-12T10:51:22.867Z,99924.28
2023-01-12T10:53:56.126Z,99921.91
2023-01-12T10:56:30.042Z,99921.75
2023-01-12T10:59:02.601Z,99922.34
2023-01-12T11:01:45.603Z,99924.81
2023-01-12T11:04:20.434Z,99924.09
2023-01-12T11:06:58.632Z,99911.72
2023-01-12T11:09:30.122Z,99911.66
2023-01-12T11:12:00.115Z,99906.31
2023-01-12T11:14:32.815Z,99903.94
2023-01-12T11:17:21.713Z,99902.22
2023-01-12T11:19:54.569Z,99908.28
2023-01-12T11:22:28.953Z,99911.69
2023-01-12T11:25:02.221Z,99905.56
2023-01-12T11:27:37.032Z,99915.16
2023-01-12T11:30:16.120Z,99911.69
2023-01-12T11:32:50.454Z,99905.44
2023-01-12T11:35:29.499Z,99908.13
2023-01-12T11:38:02.265Z,99904.00
2023-01-12T11:40:33.908Z,99896.09
2023-01-12T11:43:34.276Z,99905.72
2023-01-12T11:46:13.616Z,99894.41
2023-01-12T11:48:51.674Z,99890.03
2023-01-12T11:51:22.295Z,99898.69
2023-01-12T11:53:51.134Z,99899.63
2023-01-12T11:56:57.147Z,99897.00
2023-01-12T11:59:34.593Z,99897.72
2023-01-12T12:02:20.170Z,99911.28
2023-01-12T12:05:00.935Z,99917.22
2023-01-12T12:07:46.066Z,99908.75
2023-01-12T12:10:23.950Z,99907.91
2023-01-12T12:13:16.273Z,99909.38
2023-01-12T12:15:53.786Z,99913.97
2023-01-12T12:18:39.747Z,99905.91
2023-01-12T12:21:22.632Z,99899.97
2023-01-12T12:24:06.723Z,99892.53
2023-01-12T12:26:38.493Z,99895.16
2023-01-12T12:29:22.749Z,99909.69
2023-01-12T12:32:04.985Z,99900.81
2023-01-12T12:34:55.427Z,99905.03
2023-01-12T12:37:36.210Z,99905.19
2023-01-12T12:40:18.361Z,99907.31
2023-01-12T12:43:14.448Z,99902.94
2023-01-12T12:45:51.420Z,99903.88
2023-01-12T12:48:25.735Z,99907.34
2023-01-12T12:51:02.284Z,99896.81
2023-01-12T12:53:35.553Z,99895.22
2023-01-12T12:56:09.013Z,99893.41
2023-01-12T12:58:43.778Z,99904.34
2023-01-12T13:01:55.171Z,99902.97
2023-01-12T13:05:05.507Z,99907.03
2023-01-12T13:07:44.078Z,99907.25
2023-01-12T13:10:25.437Z,99896.81
2023-01-12T13:13:05.055Z,99896.03
2023-01-12T13:15:37.472Z,99896.97
2023-01-12T13:18:07.444Z,99905.69
2023-01-12T13:20:55.746Z,99905.75
2023-01-12T13:23:48.903Z,99906.66
2023-01-12T13:26:42.689Z,99912.38
2023-01-12T13:29:47.942Z,99909.00
2023-01-12T13:32:58.775Z,99910.81
2023-01-12T13:35:57.490Z,99913.44
2023-01-12T13:38:39.380Z,99915.88
2023-01-12T13:41:45.636Z,99926.41
2023-01-12T13:44:21.503Z,99925.28
2023-01-12T13:46:52.722Z,99924.63
2023-01-12T13:49:34.106Z,99929.16
2023-01-12T13:52:06.192Z,99916.16
2023-01-12T13:54:36.109Z,99916.88
2023-01-12T13:57:10.671Z,99924.44
2023-01-12T13:59:40.201Z,99934.84
2023-01-12T14:02:19.245Z,99929.75
2023-01-12T14:05:03.322Z,99935.16
2023-01-12T14:07:44.970Z,99935.13
2023-01-12T14:10:29.424Z,99930.09
2023-01-12T14:13:24.557Z,99919.69
2023-01-12T14:16:19.323Z,99917.09
2023-01-12T14:18:51.229Z,99917.97
2023-01-12T14:21:26.019Z,99918.81
2023-01-12T14:24:09.547Z,99927.50
2023-01-12T14:26:38.206Z,99922.25
2023-01-12T14:29:09.646Z,99912.72
2023-01-12T14:31:40.437Z,99915.34
2023-01-12T14:34:24.646Z,99904.88
2023-01-12T14:36:56.308Z,99903.97
2023-01-12T14:39:29.032Z,99906.53
2023-01-12T14:42:15.939Z,99904.72
2023-01-12T14:45:09.726Z,99909.00
2023-01-12T14:47:38.956Z,99908.13
2023-01-12T14:50:18.792Z,99909.78
2023-01-12T14:52:53.368Z,99910.81
2023-01-12T14:55:29.075Z,99909.94
2023-01-12T14:58:00.743Z,99918.66
2023-01-12T15:00:32.555Z,99916.84
2023-01-12T15:03:04.914Z,99914.22
2023-01-12T15:05:36.830Z,99913.34
2023-01-12T15:08:23.590Z,99921.97
2023-01-12T15:10:58.619Z,99912.38
2023-01-12T15:13:29.798Z,99927.25
2023-01-12T15:16:16.099Z,99933.47
2023-01-12T15:19:02.158Z,99929.03
2023-01-12T15:21:50.593Z,99935.22
2023-01-12T15:24:41.554Z,99933.56
2023-01-12T15:27:12.328Z,99945.72
2023-01-12T15:29:40.876Z,99949.28
2023-01-12T15:32:15.375Z,99955.38
2023-01-12T15:34:43.970Z,99950.13
2023-01-12T15:37:16.024Z,99947.47
2023-01-12T15:39:46.288Z,99949.31
2023-01-12T15:42:21.436Z,99945.78
2023-01-12T15:44:51.995Z,99944.06
2023-01-12T15:47:22.972Z,99937.16
2023-01-12T15:49:53.463Z,99940.59
2023-01-12T15:52:25.035Z,99936.25
2023-01-12T15:54:55.076Z,99935.34
2023-01-12T15:57:24.406Z,99929.25
2023-01-12T15:59:53.047Z,99929.22
2023-01-12T16:02:27.756Z,99931.81
2023-01-12T16:04:56.400Z,99923.16
2023-01-12T16:07:25.771Z,99919.72
2023-01-12T16:09:55.855Z,99925.78
2023-01-12T16:12:26.140Z,99919.66
2023-01-12T16:14:56.623Z,99929.25
2023-01-12T16:17:26.131Z,99926.66
2023-01-12T16:19:54.713Z,99939.72
2023-01-12T16:22:28.025Z,99931.88
2023-01-12T16:24:58.099Z,99937.97
2023-01-12T16:27:28.167Z,99929.28
2023-01-12T16:29:56.903Z,99928.38
2023-01-12T16:32:26.676Z,99924.91
2023-01-12T16:34:55.447Z,99922.28
2023-01-12T16:37:27.562Z,99923.16
2023-01-12T16:39:57.739Z,99931.84
2023-01-12T16:42:30.233Z,99927.50
2023-01-12T16:44:59.573Z,99924.88
2023-01-12T16:47:28.596Z,99925.75
2023-01-12T16:49:57.285Z,99933.59
2023-01-12T16:52:26.315Z,99946.72
2023-01-12T16:54:54.895Z,99943.22
2023-01-12T16:57:25.572Z,99947.59
2023-01-12T16:59:54.243Z,99944.09
2023-01-12T17:02:23.439Z,99949.31
2023-01-12T17:04:53.109Z,99954.56
2023-01-12T17:07:22.412Z,99962.41
2023-01-12T17:09:51.295Z,99956.31
2023-01-12T17:12:20.384Z,99947.59
2023-01-12T17:14:50.564Z,99959.78
2023-01-12T17:17:20.875Z,99955.44
2023-01-12T17:19:49.880Z,99958.91
2023-01-12T17:22:18.939Z,99954.56
2023-01-12T17:24:47.890Z,99953.72
2023-01-12T17:27:16.987Z,99963.31
2023-01-12T17:29:45.605Z,99958.91
2023-01-12T17:32:16.088Z,99956.31
2023-01-12T17:34:47.970Z,99963.31
2023-01-12T17:37:17.305Z,99956.31
2023-01-12T17:39:47.380Z,99963.28
2023-01-12T17:42:35.518Z,99956.31
2023-01-12T17:45:05.046Z,99953.69
2023-01-12T17:47:35.407Z,99958.94
2023-01-12T17:50:04.110Z,99961.56
2023-01-12T17:52:33.087Z,99961.56
2023-01-12T17:55:01.722Z,99959.81
2023-01-12T17:57:31.635Z,99958.94
2023-01-12T18:00:00.305Z,99956.34
2023-01-12T18:02:29.306Z,99951.97
2023-01-12T18:04:59.417Z,99945.88
2023-01-12T18:07:29.004Z,99938.91
2023-01-12T18:09:57.661Z,99945.00
2023-01-12T18:12:27.523Z,99945.00
2023-01-12T18:14:56.748Z,99954.53
2023-01-12T18:17:25.715Z,99958.00
2023-01-12T18:19:54.419Z,99945.81
2023-01-12T18:22:24.716Z,99944.06
2023-01-12T18:24:53.278Z,99948.41
2023-01-12T18:27:22.311Z,99946.69
2023-01-12T18:29:50.846Z,99946.66
2023-01-12T18:32:19.682Z,99951.91
2023-01-12T18:34:48.272Z,99944.06
2023-01-12T18:37:17.953Z,99942.28
2023-01-12T18:39:50.111Z,99935.31
2023-01-12T18:42:36.454Z,99944.00
2023-01-12T18:45:05.546Z,99950.97
2023-01-12T18:47:52.096Z,99942.28
2023-01-12T18:50:38.506Z,99947.47
2023-01-12T18:53:29.978Z,99945.69
2023-01-12T18:56:03.352Z,99956.13
2023-01-12T18:58:33.540Z,99950.00
2023-01-12T19:01:04.886Z,99955.22
2023-01-12T19:03:36.724Z,99960.44
2023-01-12T19:06:22.223Z,99958.75
2023-01-12T19:09:10.622Z,99956.97
2023-01-12T19:11:41.295Z,99960.47
2023-01-12T19:14:28.552Z,99958.69
2023-01-12T19:17:14.494Z,99964.78
2023-01-12T19:19:43.341Z,99961.28
2023-01-12T19:22:29.552Z,99961.22
2023-01-12T19:25:15.593Z,99963.81
2023-01-12T19:28:03.871Z,99972.56
2023-01-12T19:30:33.343Z,99958.63
2023-01-12T19:33:03.785Z,99964.72
2023-01-12T19:35:32.664Z,99952.53
2023-01-12T19:38:01.473Z,99955.13
2023-01-12T19:40:34.887Z,99963.84
2023-01-12T19:43:14.580Z,99954.16
2023-01-12T19:45:44.903Z,99946.25
2023-01-12T19:48:15.698Z,99955.75
2023-01-12T19:50:45.322Z,99950.34
2023-01-12T19:53:15.735Z,99951.34
2023-01-12T19:55:44.630Z,99955.69
2023-01-12T19:58:15.304Z,99949.50
2023-01-12T20:00:46.375Z,99943.41
2023-01-12T20:03:16.742Z,99944.41
2023-01-12T20:05:47.621Z,99933.19
2023-01-12T20:08:16.590Z,99932.34
2023-01-12T20:10:45.769Z,99927.13
2023-01-12T20:13:15.728Z,99930.63
2023-01-12T20:15:44.915Z,99934.13
2023-01-12T20:18:13.901Z,99921.94
2023-01-12T20:20:43.299Z,99928.94
2023-01-12T20:23:12.898Z,99919.38
2023-01-12T20:25:43.186Z,99920.25
2023-01-12T20:28:12.496Z,99928.06
2023-01-12T20:30:44.128Z,99926.22
2023-01-12T20:33:13.345Z,99934.06
2023-01-12T20:35:46.390Z,99928.03
2023-01-12T20:38:16.896Z,99933.19
2023-01-12T20:40:46.959Z,99937.56
2023-01-12T20:43:15.690Z,99932.38
2023-01-12T20:45:46.344Z,99932.31
2023-01-12T20:48:15.591Z,99935.81
2023-01-12T20:50:45.084Z,99942.78
2023-01-12T20:53:14.829Z,99944.53
2023-01-12T20:55:45.130Z,99948.03
2023-01-12T20:58:14.228Z,99946.31
2023-01-12T21:00:45.372Z,99946.28
2023-01-12T21:03:14.460Z,99943.69
2023-01-12T21:05:44.538Z,99941.06
2023-01-12T21:08:14.366Z,99934.94
2023-01-12T21:10:50.502Z,99935.91
2023-01-12T21:13:20.098Z,99941.06
2023-01-12T21:15:58.591Z,99944.63
2023-01-12T21:18:27.601Z,99935.88
2023-01-12T21:20:57.284Z,99939.34
2023-01-12T21:23:26.780Z,99941.06
2023-01-12T21:25:55.825Z,99939.31
2023-01-12T21:28:25.138Z,99932.34
2023-01-12T21:30:55.714Z,99934.97
2023-01-12T21:33:24.283Z,99934.09
2023-01-12T21:35:56.842Z,99941.94
2023-01-12T21:38:26.745Z,99941.94
2023-01-12T21:40:56.678Z,99940.22
2023-01-12T21:43:24.438Z,99931.56
2023-01-12T21:45:57.495Z,99928.09
2023-01-12T21:48:26.304Z,99929.84
2023-01-12T21:50:55.370Z,99925.53
2023-01-12T21:53:25.036Z,99933.34
2023-01-12T21:55:55.462Z,99931.63
2023-01-12T21:58:24.253Z,99926.41
2023-01-12T22:00:54.217Z,99924.69
2023-01-12T22:03:26.610Z,99920.41
2023-01-12T22:05:56.337Z,99923.06
2023-01-12T22:08:24.874Z,99916.09
2023-01-12T22:10:53.871Z,99918.69
2023-01-12T22:13:22.566Z,99921.34
2023-01-12T22:15:52.285Z,99927.47
2023-01-12T22:18:21.190Z,99933.56
2023-01-12T22:20:51.574Z,99918.81
2023-01-12T22:23:20.218Z,99926.66
2023-01-12T22:25:49.067Z,99922.28
2023-01-12T22:28:17.653Z,99924.91
2023-01-12T22:30:46.624Z,99919.69
2023-01-12T22:33:15.944Z,99910.09
2023-01-12T22:35:44.942Z,99910.13
2023-01-12T22:38:15.013Z,99903.16
2023-01-12T22:40:43.824Z,99897.91
2023-01-12T22:43:27.487Z,99894.44
2023-01-12T22:45:58.048Z,99894.44
2023-01-12T22:48:28.379Z,99884.88
2023-01-12T22:51:01.927Z,99890.09
2023-01-12T22:53:32.169Z,99887.50
2023-01-12T22:56:01.841Z,99886.63
2023-01-12T22:58:31.041Z,99891.00
2023-01-12T23:01:04.422Z,99884.88
2023-01-12T23:03:33.417Z,99880.53
2023-01-12T23:06:03.142Z,99883.16
2023-01-12T23:08:33.513Z,99881.41
2023-01-12T23:11:07.687Z,99879.63
2023-01-12T23:13:36.781Z,99878.78
2023-01-12T23:16:07.902Z,99875.28
2023-01-12T23:18:39.952Z,99872.66
2023-01-12T23:21:14.270Z,99869.19
2023-01-12T23:23:46.859Z,99871.78
2023-01-12T23:26:17.984Z,99872.66
2023-01-12T23:28:48.674Z,99877.03
2023-01-12T23:31:19.853Z,99875.28
2023-01-12T23:33:48.992Z,99872.66
2023-01-12T23:36:20.035Z,99876.16
2023-01-12T23:38:53.887Z,99878.75
2023-01-12T23:41:25.472Z,99884.88
2023-01-12T23:43:56.233Z,99876.16
2023-01-12T23:46:25.291Z,99882.22
2023-01-12T23:48:55.909Z,99878.75
2023-01-12T23:51:26.116Z,99874.38
2023-01-12T23:53:57.461Z,99876.13
2023-01-12T23:56:28.130Z,99875.25
2023-01-12T23:58:57.108Z,99868.28
